createdAt,value
2023-08-20T00:01:26.035Z,24.92
2023-08-20T00:03:54.973Z,24.72
2023-08-20T00:06:24.229Z,24.69
2023-08-20T00:08:52.434Z,24.46
2023-08-20T00:11:21.484Z,24.56
2023-08-20T00:13:49.223Z,24.54
2023-08-20T00:16:17.308Z,24.62
2023-08-20T00:18:45.513Z,24.43
2023-08-20T00:21:13.695Z,24.46
2023-08-20T00:23:41.953Z,24.52
2023-08-20T00:26:10.253Z,24.21
2023-08-20T00:28:39.832Z,24.14
2023-08-20T00:31:07.555Z,24.07
2023-08-20T00:33:35.297Z,23.59
2023-08-20T00:36:03.570Z,23.17
2023-08-20T00:38:31.462Z,23.65
2023-08-20T00:40:59.173Z,23.45
2023-08-20T00:43:26.894Z,23.51
2023-08-20T00:45:55.967Z,23.19
2023-08-20T00:48:23.770Z,23.35
2023-08-20T00:50:51.557Z,23.46
2023-08-20T00:53:20.015Z,23.04
2023-08-20T00:55:47.957Z,22.83
2023-08-20T00:58:16.625Z,22.79
2023-08-20T01:00:44.356Z,22.61
2023-08-20T01:03:13.423Z,22.87
2023-08-20T01:05:48.974Z,22.58
2023-08-20T01:08:29.433Z,22.84
2023-08-20T01:11:03.106Z,22.60
2023-08-20T01:13:30.775Z,22.82
2023-08-20T01:15:58.476Z,22.55
2023-08-20T01:18:27.803Z,22.34
2023-08-20T01:21:00.424Z,22.67
2023-08-20T01:23:50.282Z,22.69
2023-08-20T01:26:30.685Z,22.84
2023-08-20T01:28:59.969Z,22.85
2023-08-20T01:31:29.018Z,22.39
2023-08-20T01:33:58.639Z,22.09
2023-08-20T01:36:26.772Z,22.19
2023-08-20T01:38:54.410Z,22.27
2023-08-20T01:41:22.100Z,22.23
2023-08-20T01:43:49.825Z,22.33
2023-08-20T01:46:18.882Z,22.43
2023-08-20T01:48:46.636Z,21.91
2023-08-20T01:51:14.513Z,22.14
2023-08-20T01:53:42.181Z,22.32
2023-08-20T01:56:13.372Z,22.37
2023-08-20T01:58:41.489Z,22.27
2023-08-20T02:01:09.261Z,22.13
2023-08-20T02:03:39.038Z,22.28
2023-08-20T02:06:06.916Z,22.19
2023-08-20T02:08:34.658Z,21.26
2023-08-20T02:11:03.661Z,21.51
2023-08-20T02:13:31.460Z,21.79
2023-08-20T02:16:03.048Z,21.69
2023-08-20T02:18:30.925Z,21.79
2023-08-20T02:21:00.252Z,21.40
2023-08-20T02:23:28.031Z,21.03
2023-08-20T02:25:55.811Z,21.48
2023-08-20T02:28:23.910Z,21.60
2023-08-20T02:30:51.604Z,21.11
2023-08-20T02:33:19.388Z,21.54
2023-08-20T02:35:47.114Z,21.61
2023-08-20T02:38:16.253Z,21.53
2023-08-20T02:40:44.087Z,21.70
2023-08-20T02:43:11.806Z,21.55
2023-08-20T02:45:44.164Z,21.62
2023-08-20T02:48:12.152Z,21.26
2023-08-20T02:50:39.944Z,21.05
2023-08-20T02:53:07.794Z,21.14
2023-08-20T02:55:37.132Z,21.15
2023-08-20T02:58:05.157Z,21.03
2023-08-20T03:00:32.948Z,21.10
2023-08-20T03:03:00.672Z,21.38
2023-08-20T03:05:28.659Z,21.36
2023-08-20T03:07:56.372Z,21.61
2023-08-20T03:10:24.064Z,21.87
2023-08-20T03:12:53.116Z,21.88
2023-08-20T03:15:21.052Z,21.90
2023-08-20T03:17:48.834Z,21.56
2023-08-20T03:20:16.745Z,21.38
2023-08-20T03:22:44.417Z,21.33
2023-08-20T03:25:12.160Z,21.53
2023-08-20T03:27:39.884Z,21.46
2023-08-20T03:30:09.922Z,21.32
2023-08-20T03:32:37.598Z,21.71
2023-08-20T03:35:06.067Z,21.58
2023-08-20T03:37:34.133Z,21.57
2023-08-20T03:40:02.022Z,21.63
2023-08-20T03:42:29.730Z,21.40
2023-08-20T03:44:57.404Z,21.45
2023-08-20T03:47:26.560Z,21.82
2023-08-20T03:49:54.431Z,22.10
2023-08-20T03:52:22.120Z,22.08
2023-08-20T03:54:51.278Z,22.17
2023-08-20T03:57:18.985Z,22.07
2023-08-20T03:59:47.407Z,21.86
2023-08-20T04:02:15.624Z,22.21
2023-08-20T04:04:44.662Z,22.36
2023-08-20T04:07:12.308Z,22.32
2023-08-20T04:09:40.726Z,22.48
2023-08-20T04:12:09.033Z,22.67
2023-08-20T04:14:36.774Z,22.43
2023-08-20T04:17:04.498Z,22.56
2023-08-20T04:19:32.183Z,22.54
2023-08-20T04:22:01.207Z,22.59
2023-08-20T04:24:29.004Z,22.74
2023-08-20T04:26:56.776Z,22.35
2023-08-20T04:29:24.458Z,22.49
2023-08-20T04:31:52.136Z,22.25
2023-08-20T04:34:19.808Z,22.59
2023-08-20T04:36:47.592Z,22.71
2023-08-20T04:39:16.570Z,22.62
2023-08-20T04:41:44.261Z,22.78
2023-08-20T04:44:12.074Z,22.59
2023-08-20T04:46:39.770Z,22.67
2023-08-20T04:49:07.642Z,22.82
2023-08-20T04:51:35.314Z,22.85
2023-08-20T04:54:02.977Z,22.84
2023-08-20T04:56:32.036Z,22.97
2023-08-20T04:58:59.708Z,22.56
2023-08-20T05:01:27.460Z,22.56
2023-08-20T05:03:55.168Z,22.78
2023-08-20T05:06:22.877Z,22.58
2023-08-20T05:08:50.516Z,22.75
2023-08-20T05:11:18.189Z,23.12
2023-08-20T05:13:47.740Z,22.77
2023-08-20T05:16:15.441Z,23.07
2023-08-20T05:18:43.133Z,22.86
2023-08-20T05:21:14.432Z,22.46
2023-08-20T05:23:42.305Z,22.54
2023-08-20T05:26:10.235Z,23.16
2023-08-20T05:28:37.900Z,24.43
2023-08-20T05:31:06.951Z,23.07
2023-08-20T05:33:34.872Z,25.36
2023-08-20T05:36:02.567Z,28.37
2023-08-20T05:38:30.248Z,30.06
2023-08-20T05:40:57.902Z,31.63
2023-08-20T05:43:25.576Z,32.12
2023-08-20T05:45:53.273Z,32.20
2023-08-20T05:48:22.311Z,31.69
2023-08-20T05:50:49.989Z,30.32
2023-08-20T05:53:17.636Z,28.94
2023-08-20T05:55:45.306Z,28.69
2023-08-20T05:58:13.154Z,28.04
2023-08-20T06:00:41.029Z,28.60
2023-08-20T06:03:08.987Z,28.36
2023-08-20T06:05:38.139Z,28.83
2023-08-20T06:08:06.605Z,28.34
2023-08-20T06:10:34.273Z,28.76
2023-08-20T06:13:01.975Z,28.05
2023-08-20T06:15:29.679Z,27.78
2023-08-20T06:17:57.388Z,27.23
2023-08-20T06:20:25.092Z,26.07
2023-08-20T06:22:54.109Z,26.50
2023-08-20T06:25:21.847Z,26.43
2023-08-20T06:27:49.542Z,26.36
2023-08-20T06:30:17.281Z,26.59
2023-08-20T06:32:46.595Z,26.91
2023-08-20T06:35:14.284Z,26.82
2023-08-20T06:37:42.198Z,27.25
2023-08-20T06:40:12.241Z,26.50
2023-08-20T06:42:40.947Z,26.49
2023-08-20T06:45:10.342Z,27.08
2023-08-20T06:47:38.459Z,27.22
2023-08-20T06:50:08.021Z,27.89
2023-08-20T06:52:35.731Z,27.27
2023-08-20T06:55:03.535Z,29.05
2023-08-20T06:57:32.787Z,29.90
2023-08-20T07:00:00.634Z,30.65
2023-08-20T07:02:28.376Z,28.57
2023-08-20T07:04:56.099Z,28.34
2023-08-20T07:07:24.283Z,29.72
2023-08-20T07:09:51.947Z,31.41
2023-08-20T07:12:19.621Z,31.15
2023-08-20T07:14:48.610Z,31.16
2023-08-20T07:17:16.267Z,31.73
2023-08-20T07:19:43.980Z,32.63
2023-08-20T07:22:11.643Z,31.89
2023-08-20T07:24:39.366Z,30.86
2023-08-20T07:27:12.182Z,32.52
2023-08-20T07:29:39.915Z,32.00
2023-08-20T07:32:09.104Z,31.77
2023-08-20T07:34:36.757Z,30.95
2023-08-20T07:37:06.050Z,30.64
2023-08-20T07:39:33.743Z,32.25
2023-08-20T07:42:01.467Z,33.26
2023-08-20T07:44:29.483Z,33.80
2023-08-20T07:46:57.186Z,33.02
2023-08-20T07:49:26.287Z,33.64
2023-08-20T07:51:55.532Z,34.64
2023-08-20T07:54:23.274Z,35.53
2023-08-20T07:56:50.926Z,35.49
2023-08-20T07:59:18.570Z,36.47
2023-08-20T08:01:46.343Z,36.79
2023-08-20T08:04:14.032Z,34.80
2023-08-20T08:06:43.098Z,37.40
2023-08-20T08:09:20.218Z,38.39
2023-08-20T08:11:47.884Z,37.70
2023-08-20T08:14:15.671Z,38.15
2023-08-20T08:16:43.368Z,38.76
2023-08-20T08:19:11.073Z,38.67
2023-08-20T08:21:38.846Z,40.02
2023-08-20T08:24:08.191Z,39.07
2023-08-20T08:26:36.664Z,38.73
2023-08-20T08:29:04.808Z,39.17
2023-08-20T08:31:32.660Z,39.61
2023-08-20T08:34:00.425Z,39.63
2023-08-20T08:36:28.066Z,38.20
2023-08-20T08:38:56.981Z,38.70
2023-08-20T08:41:28.115Z,38.18
2023-08-20T08:43:57.339Z,38.26
2023-08-20T08:46:26.386Z,38.88
2023-08-20T08:48:54.745Z,37.41
2023-08-20T08:51:22.444Z,36.94
2023-08-20T08:53:50.151Z,37.33
2023-08-20T08:56:17.787Z,39.29
2023-08-20T08:58:46.999Z,37.48
2023-08-20T09:01:15.588Z,38.00
2023-08-20T09:03:43.740Z,39.19
2023-08-20T09:06:12.122Z,39.13
2023-08-20T09:08:40.234Z,39.90
2023-08-20T09:11:07.971Z,39.30
2023-08-20T09:13:37.434Z,38.41
2023-08-20T09:16:07.784Z,36.83
2023-08-20T09:18:40.326Z,36.71
2023-08-20T09:21:09.504Z,34.77
2023-08-20T09:23:37.387Z,36.09
2023-08-20T09:26:06.269Z,35.82
2023-08-20T09:28:43.187Z,33.95
2023-08-20T09:31:12.316Z,33.48
2023-08-20T09:33:51.694Z,32.22
2023-08-20T09:36:20.377Z,31.34
2023-08-20T09:38:50.605Z,32.18
2023-08-20T09:41:19.735Z,31.48
2023-08-20T09:43:50.725Z,31.21
2023-08-20T09:46:22.496Z,31.40
2023-08-20T09:48:52.788Z,30.43
2023-08-20T09:51:23.885Z,30.40
2023-08-20T09:54:00.938Z,30.60
2023-08-20T09:56:30.471Z,30.75
2023-08-20T09:58:59.699Z,30.54
2023-08-20T10:01:29.573Z,30.96
2023-08-20T10:03:58.238Z,30.63
2023-08-20T10:06:26.830Z,30.97
2023-08-20T10:08:55.910Z,31.07
2023-08-20T10:11:23.771Z,30.65
2023-08-20T10:13:51.904Z,29.94
2023-08-20T10:16:22.057Z,30.48
2023-08-20T10:18:51.585Z,30.85
2023-08-20T10:21:19.286Z,31.41
2023-08-20T10:23:51.112Z,31.32
2023-08-20T10:26:19.970Z,31.18
2023-08-20T10:28:47.636Z,31.46
2023-08-20T10:31:18.332Z,31.11
2023-08-20T10:33:56.142Z,30.35
2023-08-20T10:36:29.001Z,29.87
2023-08-20T10:38:58.022Z,30.30
2023-08-20T10:41:29.679Z,30.78
2023-08-20T10:43:59.998Z,30.49
2023-08-20T10:46:31.166Z,30.95
2023-08-20T10:49:01.234Z,30.66
2023-08-20T10:51:30.187Z,30.18
2023-08-20T10:54:08.884Z,30.06
2023-08-20T10:56:41.894Z,30.40
2023-08-20T10:59:10.891Z,30.03
2023-08-20T11:01:39.489Z,29.77
2023-08-20T11:04:09.368Z,29.88
2023-08-20T11:06:37.097Z,30.03
2023-08-20T11:09:06.735Z,30.24
2023-08-20T11:11:34.781Z,30.37
2023-08-20T11:14:08.823Z,30.22
2023-08-20T11:16:37.338Z,30.43
2023-08-20T11:19:09.565Z,30.84
2023-08-20T11:21:40.567Z,30.82
2023-08-20T11:24:08.978Z,31.39
2023-08-20T11:26:37.770Z,31.50
2023-08-20T11:29:07.778Z,31.93
2023-08-20T11:31:35.502Z,31.76
2023-08-20T11:34:04.058Z,31.98
2023-08-20T11:36:32.316Z,31.55
2023-08-20T11:39:01.518Z,31.38
2023-08-20T11:41:29.511Z,30.34
2023-08-20T11:43:57.348Z,30.13
2023-08-20T11:46:26.189Z,30.63
2023-08-20T11:49:05.392Z,29.59
2023-08-20T11:51:38.855Z,29.87
2023-08-20T11:54:09.903Z,30.87
2023-08-20T11:56:39.702Z,30.83
2023-08-20T11:59:07.454Z,31.51
2023-08-20T12:01:35.268Z,31.59
2023-08-20T12:04:04.050Z,31.67
2023-08-20T12:06:32.524Z,31.52
2023-08-20T12:09:00.489Z,31.39
2023-08-20T12:11:30.375Z,31.53
2023-08-20T12:13:58.743Z,32.09
2023-08-20T12:16:26.962Z,31.29
2023-08-20T12:18:55.034Z,31.46
2023-08-20T12:21:22.731Z,31.45
2023-08-20T12:23:50.710Z,31.36
2023-08-20T12:26:19.217Z,31.45
2023-08-20T12:28:48.286Z,30.48
2023-08-20T12:31:16.712Z,31.26
2023-08-20T12:33:44.445Z,31.00
2023-08-20T12:36:12.119Z,30.88
2023-08-20T12:38:39.919Z,30.99
2023-08-20T12:41:07.670Z,31.32
2023-08-20T12:43:35.432Z,31.20
2023-08-20T12:46:04.626Z,31.10
2023-08-20T12:48:32.414Z,30.84
2023-08-20T12:51:00.383Z,31.28
2023-08-20T12:53:28.170Z,31.69
2023-08-20T12:55:55.931Z,31.54
2023-08-20T12:58:25.089Z,31.95
2023-08-20T13:00:52.786Z,31.88
2023-08-20T13:03:22.471Z,31.26
2023-08-20T13:05:50.702Z,31.45
2023-08-20T13:08:18.962Z,31.19
2023-08-20T13:10:52.481Z,31.41
2023-08-20T13:13:22.921Z,31.40
2023-08-20T13:15:51.346Z,31.54
2023-08-20T13:18:25.741Z,30.94
2023-08-20T13:20:54.622Z,31.17
2023-08-20T13:23:22.511Z,31.18
2023-08-20T13:25:50.174Z,31.68
2023-08-20T13:28:18.972Z,31.51
2023-08-20T13:30:46.800Z,31.66
2023-08-20T13:33:14.844Z,31.68
2023-08-20T13:35:44.068Z,31.40
2023-08-20T13:38:11.958Z,31.47
2023-08-20T13:40:39.678Z,31.38
2023-08-20T13:43:07.400Z,31.64
2023-08-20T13:45:35.091Z,32.21
2023-08-20T13:48:02.871Z,32.20
2023-08-20T13:50:31.026Z,31.44
2023-08-20T13:53:01.660Z,31.78
2023-08-20T13:55:32.149Z,31.40
2023-08-20T13:57:59.886Z,31.22
2023-08-20T14:00:27.694Z,31.17
2023-08-20T14:02:55.514Z,30.98
2023-08-20T14:05:23.274Z,31.38
2023-08-20T14:07:50.938Z,31.96
2023-08-20T14:10:19.959Z,31.82
2023-08-20T14:12:47.643Z,31.97
2023-08-20T14:15:15.844Z,32.05
2023-08-20T14:17:43.553Z,32.10
2023-08-20T14:20:12.619Z,30.69
2023-08-20T14:22:40.589Z,31.48
2023-08-20T14:25:09.249Z,30.76
2023-08-20T14:27:38.400Z,30.42
2023-08-20T14:30:08.979Z,31.02
2023-08-20T14:32:40.053Z,31.52
2023-08-20T14:35:09.261Z,31.18
2023-08-20T14:37:36.903Z,31.29
2023-08-20T14:40:07.640Z,31.31
2023-08-20T14:42:35.894Z,30.93
2023-08-20T14:45:06.402Z,31.24
2023-08-20T14:47:34.145Z,32.00
2023-08-20T14:50:01.906Z,32.10
2023-08-20T14:52:29.611Z,31.22
2023-08-20T14:54:57.293Z,31.30
2023-08-20T14:57:26.330Z,31.37
2023-08-20T14:59:59.437Z,31.65
2023-08-20T15:02:28.641Z,31.33
2023-08-20T15:04:56.374Z,31.38
2023-08-20T15:07:24.845Z,31.04
2023-08-20T15:09:52.637Z,30.80
2023-08-20T15:12:20.450Z,30.99
2023-08-20T15:14:48.095Z,31.15
2023-08-20T15:17:15.741Z,31.09
2023-08-20T15:19:45.075Z,31.43
2023-08-20T15:22:13.181Z,31.73
2023-08-20T15:24:40.797Z,31.91
2023-08-20T15:27:08.888Z,31.70
2023-08-20T15:29:39.092Z,31.44
2023-08-20T15:32:07.186Z,30.82
2023-08-20T15:34:34.851Z,31.21
2023-08-20T15:37:04.875Z,31.42
2023-08-20T15:39:34.969Z,31.57
2023-08-20T15:42:02.901Z,31.24
2023-08-20T15:44:30.620Z,30.92
2023-08-20T15:46:58.359Z,30.52
2023-08-20T15:49:28.257Z,30.83
2023-08-20T15:51:56.024Z,30.95
2023-08-20T15:54:26.626Z,29.79
2023-08-20T15:56:54.679Z,29.86
2023-08-20T15:59:22.613Z,30.26
2023-08-20T16:01:50.660Z,29.98
2023-08-20T16:04:18.405Z,30.33
2023-08-20T16:06:46.174Z,30.65
2023-08-20T16:09:13.926Z,30.08
2023-08-20T16:11:42.992Z,30.57
2023-08-20T16:14:11.357Z,30.89
2023-08-20T16:16:39.633Z,30.53
2023-08-20T16:19:07.395Z,30.64
2023-08-20T16:21:35.429Z,30.08
2023-08-20T16:24:05.272Z,30.70
2023-08-20T16:26:34.832Z,30.80
2023-08-20T16:29:04.524Z,30.35
2023-08-20T16:31:32.415Z,30.91
2023-08-20T16:34:00.078Z,30.70
2023-08-20T16:36:27.760Z,30.66
2023-08-20T16:38:55.705Z,30.84
2023-08-20T16:41:23.404Z,31.05
2023-08-20T16:43:51.138Z,30.67
2023-08-20T16:46:20.175Z,30.91
2023-08-20T16:48:47.857Z,30.63
2023-08-20T16:51:15.564Z,30.71
2023-08-20T16:53:43.274Z,31.01
2023-08-20T16:56:10.976Z,31.04
2023-08-20T16:58:38.679Z,31.09
2023-08-20T17:01:06.896Z,31.27
2023-08-20T17:03:35.933Z,31.33
2023-08-20T17:06:05.334Z,30.93
2023-08-20T17:08:33.224Z,30.91
2023-08-20T17:11:07.874Z,31.05
2023-08-20T17:13:36.831Z,30.30
2023-08-20T17:16:05.636Z,30.02
2023-08-20T17:18:33.892Z,30.42
2023-08-20T17:21:03.636Z,30.82
2023-08-20T17:23:33.415Z,30.92
2023-08-20T17:26:01.188Z,31.06
2023-08-20T17:28:29.160Z,30.50
2023-08-20T17:30:57.076Z,30.52
2023-08-20T17:33:25.187Z,30.49
2023-08-20T17:35:52.878Z,30.63
2023-08-20T17:38:23.084Z,30.22
2023-08-20T17:40:50.773Z,30.42
2023-08-20T17:43:18.638Z,30.14
2023-08-20T17:45:46.395Z,30.38
2023-08-20T17:48:16.100Z,30.48
2023-08-20T17:50:44.082Z,30.51
2023-08-20T17:53:11.791Z,30.31
2023-08-20T17:55:40.858Z,30.11
2023-08-20T17:58:08.975Z,30.20
2023-08-20T18:00:36.659Z,30.11
2023-08-20T18:03:05.148Z,29.87
2023-08-20T18:05:33.338Z,29.93
2023-08-20T18:08:02.177Z,29.92
2023-08-20T18:10:29.962Z,29.79
2023-08-20T18:12:59.513Z,29.50
2023-08-20T18:15:28.071Z,29.49
2023-08-20T18:17:55.929Z,29.39
2023-08-20T18:20:24.074Z,29.49
2023-08-20T18:22:51.715Z,29.52
2023-08-20T18:25:19.463Z,29.36
2023-08-20T18:27:47.229Z,29.42
2023-08-20T18:30:17.477Z,29.16
2023-08-20T18:32:45.114Z,29.26
2023-08-20T18:35:13.162Z,29.34
2023-08-20T18:37:40.909Z,29.33
2023-08-20T18:40:11.552Z,29.25
2023-08-20T18:42:39.964Z,29.04
2023-08-20T18:45:09.313Z,29.03
2023-08-20T18:47:38.468Z,28.92
2023-08-20T18:50:07.189Z,28.67
2023-08-20T18:52:35.127Z,28.50
2023-08-20T18:55:03.145Z,28.56
2023-08-20T18:57:30.795Z,28.64
2023-08-20T19:00:00.327Z,28.46
2023-08-20T19:02:28.121Z,28.45
2023-08-20T19:04:57.455Z,28.40
2023-08-20T19:07:26.497Z,28.34
2023-08-20T19:09:56.398Z,28.36
2023-08-20T19:12:24.051Z,28.38
2023-08-20T19:14:51.914Z,28.20
2023-08-20T19:17:19.560Z,28.13
2023-08-20T19:19:47.231Z,27.85
2023-08-20T19:22:17.164Z,27.92
2023-08-20T19:24:44.827Z,27.84
2023-08-20T19:27:12.897Z,27.65
2023-08-20T19:29:40.581Z,27.62
2023-08-20T19:32:08.416Z,27.76
2023-08-20T19:34:36.096Z,27.64
2023-08-20T19:37:04.680Z,27.09
2023-08-20T19:39:33.757Z,26.12
2023-08-20T19:42:02.542Z,25.72
2023-08-20T19:44:30.252Z,24.92
2023-08-20T19:46:57.980Z,24.44
2023-08-20T19:49:25.653Z,25.08
2023-08-20T19:51:53.342Z,24.29
2023-08-20T19:54:22.457Z,24.38
2023-08-20T19:56:51.800Z,23.39
2023-08-20T19:59:19.910Z,23.66
2023-08-20T20:01:48.690Z,23.93
2023-08-20T20:04:17.093Z,24.83
2023-08-20T20:06:45.250Z,24.19
2023-08-20T20:09:13.499Z,23.73
2023-08-20T20:11:41.170Z,23.41
2023-08-20T20:14:10.257Z,23.04
2023-08-20T20:16:38.219Z,23.33
2023-08-20T20:19:05.921Z,23.44
2023-08-20T20:21:33.601Z,22.93
2023-08-20T20:24:01.336Z,22.96
2023-08-20T20:26:28.967Z,23.65
2023-08-20T20:28:57.351Z,23.65
2023-08-20T20:31:26.658Z,24.02
2023-08-20T20:33:54.409Z,23.92
2023-08-20T20:36:22.087Z,24.51
2023-08-20T20:38:49.899Z,24.70
2023-08-20T20:41:17.878Z,24.70
2023-08-20T20:43:45.650Z,24.91
2023-08-20T20:46:13.357Z,24.62
2023-08-20T20:48:42.382Z,24.54
2023-08-20T20:51:10.054Z,24.33
2023-08-20T20:53:37.708Z,24.12
2023-08-20T20:56:05.735Z,24.49
2023-08-20T20:58:33.476Z,24.19
2023-08-20T21:01:01.244Z,23.31
2023-08-20T21:03:28.961Z,23.39
2023-08-20T21:05:57.958Z,23.36
2023-08-20T21:08:25.874Z,23.66
2023-08-20T21:10:53.534Z,22.64
2023-08-20T21:13:21.653Z,23.28
2023-08-20T21:15:49.319Z,23.18
2023-08-20T21:18:17.066Z,23.26
2023-08-20T21:20:44.793Z,23.63
2023-08-20T21:23:13.823Z,23.40
2023-08-20T21:25:41.943Z,22.92
2023-08-20T21:28:09.652Z,23.14
2023-08-20T21:30:37.323Z,22.91
2023-08-20T21:33:05.311Z,22.74
2023-08-20T21:35:32.981Z,22.47
2023-08-20T21:38:00.640Z,21.83
2023-08-20T21:40:29.815Z,22.51
2023-08-20T21:42:57.541Z,22.36
2023-08-20T21:45:25.201Z,22.55
2023-08-20T21:47:52.957Z,22.60
2023-08-20T21:50:20.662Z,22.99
2023-08-20T21:52:48.348Z,22.54
2023-08-20T21:55:16.345Z,23.16
2023-08-20T21:57:46.759Z,22.74
2023-08-20T22:00:16.599Z,22.68
2023-08-20T22:02:45.370Z,22.94
2023-08-20T22:05:14.349Z,23.32
2023-08-20T22:07:44.432Z,22.53
2023-08-20T22:10:12.874Z,22.78
2023-08-20T22:12:41.073Z,22.86
2023-08-20T22:15:11.813Z,22.54
2023-08-20T22:17:39.813Z,23.11
2023-08-20T22:20:11.068Z,23.17
2023-08-20T22:22:39.725Z,22.74
2023-08-20T22:25:08.782Z,22.39
2023-08-20T22:27:37.179Z,22.20
2023-08-20T22:30:05.854Z,21.56
2023-08-20T22:32:35.452Z,21.60
2023-08-20T22:35:03.465Z,21.34
2023-08-20T22:37:31.241Z,21.43
2023-08-20T22:39:58.906Z,20.68
2023-08-20T22:42:26.523Z,21.24
2023-08-20T22:44:54.189Z,20.55
2023-08-20T22:47:22.189Z,20.63
2023-08-20T22:49:51.440Z,21.26
2023-08-20T22:52:19.161Z,20.86
2023-08-20T22:54:46.824Z,20.27
2023-08-20T22:57:14.484Z,20.59
2023-08-20T22:59:42.197Z,20.50
2023-08-20T23:02:09.908Z,20.93
2023-08-20T23:04:37.659Z,21.62
2023-08-20T23:07:06.904Z,22.05
2023-08-20T23:09:34.555Z,22.21
2023-08-20T23:12:02.251Z,21.30
2023-08-20T23:14:29.967Z,21.30
2023-08-20T23:16:57.832Z,21.88
2023-08-20T23:19:26.882Z,21.79
2023-08-20T23:21:54.542Z,20.69
2023-08-20T23:24:23.640Z,20.62
2023-08-20T23:26:51.315Z,20.83
2023-08-20T23:29:18.980Z,21.05
2023-08-20T23:31:47.127Z,21.24
2023-08-20T23:34:14.814Z,20.91
2023-08-20T23:36:42.629Z,20.50
2023-08-20T23:39:10.284Z,20.52
2023-08-20T23:41:39.274Z,21.22
2023-08-20T23:44:06.918Z,20.64
2023-08-20T23:46:47.200Z,20.01
2023-08-20T23:49:15.791Z,20.97
2023-08-20T23:51:43.547Z,20.44
2023-08-20T23:54:11.249Z,20.39
2023-08-20T23:56:40.326Z,21.10
2023-08-20T23:59:08.208Z,21.21
